DENIK EDXH-EDXW
Flight info
| Callsign | DENIK |
|---|---|
| Flight time | 0h 19m |
| Altitude | 3000 |
| Route | 544454N0081900E DCT 545018N0081900E |
| Aircraft | BT36/L-BDFGLORY/S |
Departure
| Time | 2026-05-04 20:22 |
|---|---|
| Airport | Helgoland-Düne Airport (EDXH) |
Arrival
| Time | 2026-05-04 20:42 |
|---|---|
| Airport | Westerland Sylt Airport (EDXW) |
| Time | Latitude | Longitude | Altitude | Speed | Heading |
|---|---|---|---|---|---|
| 2026-05-04 20:13 | 54.18663 | 7.91467 | 6 ft | 0 kts | 47° |
| 2026-05-04 20:19 | 54.18663 | 7.91474 | 6 ft | 1 kts | 102° |
| 2026-05-04 20:19 | 54.18646 | 7.91447 | 6 ft | 9 kts | 256° |
| 2026-05-04 20:19 | 54.18575 | 7.91389 | 4 ft | 14 kts | 161° |
| 2026-05-04 20:20 | 54.18485 | 7.91484 | 6 ft | 17 kts | 143° |
| 2026-05-04 20:20 | 54.18369 | 7.91621 | 6 ft | 22 kts | 160° |
| 2026-05-04 20:20 | 54.18332 | 7.91693 | 8 ft | 0 kts | 320° |
| 2026-05-04 20:22 | 54.18467 | 7.91508 | 22 ft | 65 kts | 321° |
| 2026-05-04 20:22 | 54.18759 | 7.90809 | 445 ft | 87 kts | 283° |
| 2026-05-04 20:22 | 54.18480 | 7.89808 | 953 ft | 105 kts | 221° |
| 2026-05-04 20:22 | 54.17756 | 7.89703 | 1647 ft | 110 kts | 156° |
| 2026-05-04 20:23 | 54.17210 | 7.90884 | 1767 ft | 151 kts | 100° |
| 2026-05-04 20:23 | 54.17395 | 7.92782 | 1770 ft | 172 kts | 71° |
| 2026-05-04 20:23 | 54.17802 | 7.94763 | 1683 ft | 180 kts | 51° |
| 2026-05-04 20:23 | 54.18807 | 7.95898 | 1732 ft | 173 kts | 16° |
| 2026-05-04 20:24 | 54.19981 | 7.96440 | 1881 ft | 176 kts | 12° |
| 2026-05-04 20:24 | 54.21161 | 7.96997 | 2018 ft | 178 kts | 13° |
| 2026-05-04 20:24 | 54.22348 | 7.97571 | 2151 ft | 174 kts | 13° |
| 2026-05-04 20:24 | 54.23476 | 7.98133 | 2281 ft | 169 kts | 13° |
| 2026-05-04 20:25 | 54.24606 | 7.98706 | 2412 ft | 168 kts | 13° |
| 2026-05-04 20:25 | 54.25720 | 7.99289 | 2508 ft | 170 kts | 13° |
| 2026-05-04 20:25 | 54.26873 | 7.99882 | 2512 ft | 174 kts | 13° |
| 2026-05-04 20:25 | 54.28039 | 8.00478 | 2511 ft | 177 kts | 13° |
| 2026-05-04 20:26 | 54.29215 | 8.01075 | 2515 ft | 178 kts | 13° |
| 2026-05-04 20:26 | 54.30409 | 8.01686 | 2513 ft | 178 kts | 13° |
| 2026-05-04 20:26 | 54.31601 | 8.02294 | 2512 ft | 179 kts | 13° |
| 2026-05-04 20:26 | 54.32785 | 8.02903 | 2513 ft | 179 kts | 13° |
| 2026-05-04 20:27 | 54.33985 | 8.03522 | 2513 ft | 179 kts | 13° |
| 2026-05-04 20:27 | 54.35184 | 8.04167 | 2512 ft | 180 kts | 18° |
| 2026-05-04 20:27 | 54.36261 | 8.05269 | 2511 ft | 183 kts | 31° |
| 2026-05-04 20:27 | 54.37305 | 8.06517 | 2516 ft | 182 kts | 31° |
| 2026-05-04 20:28 | 54.38338 | 8.07741 | 2511 ft | 182 kts | 31° |
| 2026-05-04 20:28 | 54.39381 | 8.08982 | 2517 ft | 181 kts | 32° |
| 2026-05-04 20:28 | 54.40446 | 8.10150 | 2513 ft | 180 kts | 23° |
| 2026-05-04 20:28 | 54.41562 | 8.11099 | 2514 ft | 180 kts | 23° |
| 2026-05-04 20:29 | 54.42690 | 8.12073 | 2510 ft | 181 kts | 24° |
| 2026-05-04 20:29 | 54.43817 | 8.13048 | 2515 ft | 181 kts | 23° |
| 2026-05-04 20:29 | 54.44930 | 8.14013 | 2513 ft | 181 kts | 23° |
| 2026-05-04 20:29 | 54.46090 | 8.14788 | 2512 ft | 178 kts | 14° |
| 2026-05-04 20:30 | 54.47272 | 8.15440 | 2514 ft | 178 kts | 14° |
| 2026-05-04 20:30 | 54.48461 | 8.16093 | 2514 ft | 179 kts | 14° |
| 2026-05-04 20:30 | 54.49636 | 8.16739 | 2517 ft | 179 kts | 14° |
| 2026-05-04 20:30 | 54.50839 | 8.17390 | 2517 ft | 180 kts | 14° |
| 2026-05-04 20:31 | 54.52025 | 8.18040 | 2508 ft | 180 kts | 14° |
| 2026-05-04 20:31 | 54.53219 | 8.18704 | 2508 ft | 180 kts | 14° |
| 2026-05-04 20:31 | 54.54414 | 8.19377 | 2508 ft | 179 kts | 14° |
| 2026-05-04 20:31 | 54.55594 | 8.20029 | 2510 ft | 180 kts | 14° |
| 2026-05-04 20:32 | 54.56784 | 8.20694 | 2512 ft | 179 kts | 14° |
| 2026-05-04 20:32 | 54.57979 | 8.21355 | 2514 ft | 180 kts | 14° |
| 2026-05-04 20:32 | 54.59176 | 8.22028 | 2509 ft | 180 kts | 15° |
| 2026-05-04 20:32 | 54.60362 | 8.22686 | 2510 ft | 180 kts | 14° |
| 2026-05-04 20:33 | 54.61548 | 8.23347 | 2510 ft | 180 kts | 14° |
| 2026-05-04 20:33 | 54.62745 | 8.24008 | 2509 ft | 179 kts | 14° |
| 2026-05-04 20:33 | 54.63922 | 8.24651 | 2508 ft | 178 kts | 13° |
| 2026-05-04 20:33 | 54.65125 | 8.25063 | 2506 ft | 177 kts | 5° |
| 2026-05-04 20:34 | 54.66343 | 8.25388 | 2505 ft | 177 kts | 7° |
| 2026-05-04 20:34 | 54.67554 | 8.25749 | 2505 ft | 177 kts | 6° |
| 2026-05-04 20:34 | 54.68765 | 8.26149 | 2489 ft | 177 kts | 9° |
| 2026-05-04 20:34 | 54.69973 | 8.26567 | 2422 ft | 179 kts | 9° |
| 2026-05-04 20:35 | 54.71192 | 8.27127 | 2312 ft | 183 kts | 19° |
| 2026-05-04 20:35 | 54.72274 | 8.28239 | 2344 ft | 180 kts | 33° |
| 2026-05-04 20:35 | 54.73256 | 8.29593 | 2201 ft | 180 kts | 36° |
| 2026-05-04 20:35 | 54.74218 | 8.30957 | 2080 ft | 173 kts | 32° |
| 2026-05-04 20:36 | 54.75228 | 8.31974 | 2017 ft | 165 kts | 18° |
| 2026-05-04 20:36 | 54.76310 | 8.32357 | 2012 ft | 158 kts | 4° |
| 2026-05-04 20:36 | 54.77406 | 8.32496 | 1975 ft | 156 kts | 359° |
| 2026-05-04 20:36 | 54.78459 | 8.32515 | 1941 ft | 147 kts | 358° |
| 2026-05-04 20:37 | 54.79459 | 8.32444 | 1865 ft | 141 kts | 354° |
| 2026-05-04 20:37 | 54.80422 | 8.32307 | 1755 ft | 138 kts | 353° |
| 2026-05-04 20:37 | 54.81376 | 8.32176 | 1610 ft | 138 kts | 353° |
| 2026-05-04 20:37 | 54.82357 | 8.31892 | 1274 ft | 147 kts | 352° |
| 2026-05-04 20:38 | 54.83333 | 8.31810 | 1297 ft | 131 kts | 356° |
| 2026-05-04 20:38 | 54.84153 | 8.31911 | 1345 ft | 115 kts | 19° |
| 2026-05-04 20:38 | 54.84754 | 8.32824 | 1304 ft | 113 kts | 41° |
| 2026-05-04 20:38 | 54.85275 | 8.33847 | 1141 ft | 118 kts | 43° |
| 2026-05-04 20:39 | 54.85786 | 8.34930 | 967 ft | 112 kts | 46° |
| 2026-05-04 20:39 | 54.86239 | 8.35943 | 834 ft | 100 kts | 46° |
| 2026-05-04 20:39 | 54.86668 | 8.36849 | 678 ft | 102 kts | 46° |
| 2026-05-04 20:39 | 54.87150 | 8.37689 | 661 ft | 88 kts | 24° |
| 2026-05-04 20:40 | 54.87688 | 8.37914 | 571 ft | 78 kts | 356° |
| 2026-05-04 20:40 | 54.88201 | 8.37675 | 460 ft | 76 kts | 337° |
| 2026-05-04 20:40 | 54.88653 | 8.37237 | 366 ft | 72 kts | 329° |
| 2026-05-04 20:40 | 54.89079 | 8.36750 | 262 ft | 72 kts | 328° |
| 2026-05-04 20:41 | 54.89488 | 8.36265 | 187 ft | 71 kts | 326° |
| 2026-05-04 20:41 | 54.89890 | 8.35793 | 114 ft | 69 kts | 326° |
| 2026-05-04 20:41 | 54.90282 | 8.35328 | 66 ft | 67 kts | 328° |
| 2026-05-04 20:41 | 54.90642 | 8.34904 | 30 ft | 50 kts | 324° |
| 2026-05-04 20:42 | 54.90883 | 8.34593 | 30 ft | 39 kts | 324° |
| 2026-05-04 20:42 | 54.91086 | 8.34342 | 32 ft | 34 kts | 323° |
| 2026-05-04 20:42 | 54.91270 | 8.34113 | 31 ft | 31 kts | 325° |
| 2026-05-04 20:42 | 54.91279 | 8.33909 | 29 ft | 22 kts | 235° |
| 2026-05-04 20:43 | 54.91171 | 8.33594 | 27 ft | 37 kts | 240° |
| 2026-05-04 20:43 | 54.91037 | 8.33186 | 28 ft | 35 kts | 241° |
| 2026-05-04 20:43 | 54.91064 | 8.32902 | 27 ft | 26 kts | 311° |
| 2026-05-04 20:43 | 54.91122 | 8.32783 | 22 ft | 12 kts | 314° |
| 2026-05-04 20:44 | 54.91172 | 8.32647 | 22 ft | 14 kts | 250° |
| 2026-05-04 20:44 | 54.91149 | 8.32585 | 22 ft | 0 kts | 217° |